createdAt,value
2024-01-11T00:00:13.773Z,93410.00
2024-01-11T00:01:13.839Z,93409.00
2024-01-11T00:02:13.937Z,93408.00
2024-01-11T00:03:13.955Z,93406.00
2024-01-11T00:04:14.032Z,93404.00
2024-01-11T00:05:14.212Z,93402.00
2024-01-11T00:06:14.241Z,93402.00
2024-01-11T00:07:14.280Z,93400.00
2024-01-11T00:08:14.290Z,93399.00
2024-01-11T00:09:14.340Z,93399.00
2024-01-11T00:10:14.482Z,93401.00
2024-01-11T00:11:17.514Z,93400.00
2024-01-11T00:12:14.514Z,93401.00
2024-01-11T00:13:14.534Z,93399.00
2024-01-11T00:14:14.588Z,93399.00
2024-01-11T00:15:14.696Z,93398.00
2024-01-11T00:16:14.608Z,93398.00
2024-01-11T00:17:14.708Z,93400.00
2024-01-11T00:18:14.736Z,93401.00
2024-01-11T00:19:14.902Z,93403.00
2024-01-11T00:20:14.862Z,93405.00
2024-01-11T00:21:14.746Z,93402.00
2024-01-11T00:22:14.775Z,93399.00
2024-01-11T00:23:14.849Z,93399.00
2024-01-11T00:24:14.840Z,93397.00
2024-01-11T00:25:14.855Z,93397.00
2024-01-11T00:26:15.061Z,93399.00
2024-01-11T00:27:14.923Z,93396.00
2024-01-11T00:28:14.961Z,93398.00
2024-01-11T00:29:14.999Z,93398.00
2024-01-11T00:30:15.029Z,93399.00
2024-01-11T00:31:15.049Z,93400.00
2024-01-11T00:32:15.092Z,93402.00
2024-01-11T00:33:15.158Z,93403.00
2024-01-11T00:34:15.262Z,93405.00
2024-01-11T00:35:15.160Z,93403.00
2024-01-11T00:36:15.169Z,93403.00
2024-01-11T00:37:15.195Z,93402.00
2024-01-11T00:38:15.269Z,93403.00
2024-01-11T00:39:15.258Z,93405.00
2024-01-11T00:40:15.288Z,93403.00
2024-01-11T00:41:15.366Z,93403.00
2024-01-11T00:42:15.340Z,93406.00
2024-01-11T00:43:15.363Z,93406.00
2024-01-11T00:44:15.457Z,93406.00
2024-01-11T00:45:16.087Z,93405.00
2024-01-11T00:46:15.442Z,93406.00
2024-01-11T00:47:15.495Z,93406.00
2024-01-11T00:48:15.591Z,93408.00
2024-01-11T00:49:15.631Z,93408.00
2024-01-11T00:50:15.639Z,93410.00
2024-01-11T00:51:15.690Z,93410.00
2024-01-11T00:52:15.750Z,93409.00
2024-01-11T00:53:16.162Z,93411.00
2024-01-11T00:54:15.899Z,93413.00
2024-01-11T00:55:15.976Z,93411.00
2024-01-11T00:56:16.065Z,93412.00
2024-01-11T00:57:16.094Z,93412.00
2024-01-11T00:58:16.166Z,93413.00
2024-01-11T00:59:16.214Z,93412.00
2024-01-11T01:00:16.267Z,93411.00
2024-01-11T01:01:16.404Z,93413.00
2024-01-11T01:02:16.468Z,93411.00
2024-01-11T01:03:16.508Z,93411.00
2024-01-11T01:04:16.652Z,93410.00
2024-01-11T01:05:16.668Z,93410.00
2024-01-11T01:06:16.794Z,93409.00
2024-01-11T01:07:16.750Z,93407.00
2024-01-11T01:08:16.876Z,93408.00
2024-01-11T01:09:16.897Z,93411.00
2024-01-11T01:10:16.968Z,93412.00
2024-01-11T01:11:17.161Z,93413.00
2024-01-11T01:12:17.100Z,93411.00
2024-01-11T01:13:17.187Z,93414.00
2024-01-11T01:14:17.311Z,93413.00
2024-01-11T01:15:17.332Z,93412.00
2024-01-11T01:16:17.384Z,93418.00
2024-01-11T01:17:17.670Z,93417.00
2024-01-11T01:18:17.754Z,93420.00
2024-01-11T01:19:17.634Z,93421.00
2024-01-11T01:20:17.701Z,93420.00
2024-01-11T01:21:17.690Z,93420.00
2024-01-11T01:22:17.754Z,93420.00
2024-01-11T01:23:17.849Z,93420.00
2024-01-11T01:24:17.882Z,93420.00
2024-01-11T01:25:17.969Z,93419.00
2024-01-11T01:26:18.071Z,93421.00
2024-01-11T01:27:18.124Z,93419.00
2024-01-11T01:28:18.153Z,93419.00
2024-01-11T01:29:18.312Z,93423.00
2024-01-11T01:30:18.317Z,93424.00
2024-01-11T01:31:18.364Z,93427.00
2024-01-11T01:32:18.558Z,93428.00
2024-01-11T01:33:18.684Z,93423.00
2024-01-11T01:34:18.626Z,93425.00
2024-01-11T01:35:18.680Z,93425.00
2024-01-11T01:36:18.680Z,93428.00
2024-01-11T01:37:18.761Z,93428.00
2024-01-11T01:38:18.872Z,93425.00
2024-01-11T01:39:18.871Z,93428.00
2024-01-11T01:40:18.928Z,93429.00
2024-01-11T01:41:19.042Z,93428.00
2024-01-11T01:42:19.062Z,93430.00
2024-01-11T01:43:19.127Z,93429.00
2024-01-11T01:44:19.299Z,93429.00
2024-01-11T01:45:19.269Z,93430.00
2024-01-11T01:46:19.333Z,93430.00
2024-01-11T01:47:19.462Z,93431.00
2024-01-11T01:48:19.592Z,93431.00
2024-01-11T01:49:19.596Z,93432.00
2024-01-11T01:50:19.634Z,93430.00
2024-01-11T01:51:19.662Z,93429.00
2024-01-11T01:52:19.729Z,93427.00
2024-01-11T01:53:19.844Z,93427.00
2024-01-11T01:54:19.862Z,93426.00
2024-01-11T01:55:19.947Z,93427.00
2024-01-11T01:56:20.008Z,93428.00
2024-01-11T01:57:20.072Z,93429.00
2024-01-11T01:58:20.152Z,93427.00
2024-01-11T01:59:20.227Z,93426.00
2024-01-11T02:00:20.277Z,93425.00
2024-01-11T02:01:20.384Z,93427.00
2024-01-11T02:02:20.466Z,93426.00
2024-01-11T02:03:20.510Z,93427.00
2024-01-11T02:04:20.547Z,93428.00
2024-01-11T02:05:20.806Z,93430.00
2024-01-11T02:06:20.746Z,93429.00
2024-01-11T02:07:20.749Z,93429.00
2024-01-11T02:08:20.832Z,93428.00
2024-01-11T02:09:20.880Z,93430.00
2024-01-11T02:10:20.951Z,93428.00
2024-01-11T02:11:21.024Z,93429.00
2024-01-11T02:12:21.077Z,93427.00
2024-01-11T02:13:21.151Z,93430.00
2024-01-11T02:14:21.235Z,93433.00
2024-01-11T02:15:21.310Z,93435.00
2024-01-11T02:16:21.370Z,93434.00
2024-01-11T02:17:21.458Z,93433.00
2024-01-11T02:18:21.542Z,93431.00
2024-01-11T02:19:21.617Z,93431.00
2024-01-11T02:20:21.656Z,93430.00
2024-01-11T02:21:21.693Z,93432.00
2024-01-11T02:22:21.786Z,93433.00
2024-01-11T02:23:21.861Z,93435.00
2024-01-11T02:24:21.879Z,93433.00
2024-01-11T02:25:21.942Z,93433.00
2024-01-11T02:26:22.028Z,93437.00
2024-01-11T02:27:22.077Z,93433.00
2024-01-11T02:28:22.150Z,93433.00
2024-01-11T02:29:22.252Z,93435.00
2024-01-11T02:30:22.310Z,93437.00
2024-01-11T02:31:22.346Z,93437.00
2024-01-11T02:32:22.552Z,93438.00
2024-01-11T02:33:22.613Z,93438.00
2024-01-11T02:34:22.589Z,93439.00
2024-01-11T02:35:22.621Z,93443.00
2024-01-11T02:36:22.666Z,93441.00
2024-01-11T02:37:22.724Z,93442.00
2024-01-11T02:38:22.847Z,93442.00
2024-01-11T02:39:22.862Z,93441.00
2024-01-11T02:40:22.933Z,93439.00
2024-01-11T02:41:23.020Z,93438.00
2024-01-11T02:42:23.086Z,93438.00
2024-01-11T02:43:23.149Z,93438.00
2024-01-11T02:44:23.303Z,93439.00
2024-01-11T02:45:23.294Z,93438.00
2024-01-11T02:46:23.383Z,93436.00
2024-01-11T02:47:23.442Z,93435.00
2024-01-11T02:48:23.540Z,93432.00
2024-01-11T02:49:23.691Z,93435.00
2024-01-11T02:50:23.672Z,93434.00
2024-01-11T02:51:23.717Z,93435.00
2024-01-11T02:52:23.750Z,93436.00
2024-01-11T02:53:23.853Z,93435.00
2024-01-11T02:54:23.881Z,93438.00
2024-01-11T02:55:24.001Z,93436.00
2024-01-11T02:56:24.048Z,93433.00
2024-01-11T02:57:24.073Z,93435.00
2024-01-11T02:58:24.170Z,93433.00
2024-01-11T02:59:24.255Z,93435.00
2024-01-11T03:00:24.271Z,93434.00
2024-01-11T03:01:24.341Z,93436.00
2024-01-11T03:02:24.482Z,93436.00
2024-01-11T03:03:24.471Z,93434.00
2024-01-11T03:04:24.532Z,93436.00
2024-01-11T03:05:24.730Z,93433.00
2024-01-11T03:06:24.705Z,93431.00
2024-01-11T03:07:24.728Z,93432.00
2024-01-11T03:08:24.856Z,93432.00
2024-01-11T03:09:24.863Z,93431.00
2024-01-11T03:10:24.933Z,93433.00
2024-01-11T03:11:25.070Z,93431.00
2024-01-11T03:12:25.053Z,93434.00
2024-01-11T03:13:25.122Z,93434.00
2024-01-11T03:14:25.185Z,93433.00
2024-01-11T03:15:25.235Z,93436.00
2024-01-11T03:16:25.301Z,93434.00
2024-01-11T03:17:25.435Z,93432.00
2024-01-11T03:18:25.471Z,93428.00
2024-01-11T03:19:25.529Z,93427.00
2024-01-11T03:20:25.609Z,93426.00
2024-01-11T03:21:25.603Z,93425.00
2024-01-11T03:22:25.677Z,93423.00
2024-01-11T03:23:25.762Z,93423.00
2024-01-11T03:24:25.787Z,93420.00
2024-01-11T03:25:25.848Z,93417.00
2024-01-11T03:26:25.990Z,93417.00
2024-01-11T03:27:25.963Z,93417.00
2024-01-11T03:28:26.031Z,93414.00
2024-01-11T03:29:26.133Z,93415.00
2024-01-11T03:30:26.181Z,93414.00
2024-01-11T03:31:26.205Z,93421.00
2024-01-11T03:32:26.361Z,93418.00
2024-01-11T03:33:26.445Z,93422.00
2024-01-11T03:34:26.474Z,93421.00
2024-01-11T03:35:26.496Z,93426.00
2024-01-11T03:36:26.536Z,93424.00
2024-01-11T03:37:26.588Z,93423.00
2024-01-11T03:38:26.667Z,93423.00
2024-01-11T03:39:26.718Z,93421.00
2024-01-11T03:40:26.786Z,93424.00
2024-01-11T03:41:26.890Z,93423.00
2024-01-11T03:42:26.915Z,93424.00
2024-01-11T03:43:26.971Z,93424.00
2024-01-11T03:44:27.056Z,93418.00
2024-01-11T03:45:27.107Z,93417.00
2024-01-11T03:46:27.188Z,93420.00
2024-01-11T03:47:27.340Z,93413.00
2024-01-11T03:48:27.362Z,93413.00
2024-01-11T03:49:27.500Z,93412.00
2024-01-11T03:50:27.459Z,93413.00
2024-01-11T03:51:27.510Z,93410.00
2024-01-11T03:52:27.635Z,93410.00
2024-01-11T03:53:27.706Z,93410.00
2024-01-11T03:54:27.736Z,93410.00
2024-01-11T03:55:27.789Z,93411.00
2024-01-11T03:56:27.890Z,93412.00
2024-01-11T03:57:27.917Z,93409.00
2024-01-11T03:58:27.988Z,93410.00
2024-01-11T03:59:28.612Z,93414.00
2024-01-11T04:00:28.117Z,93408.00
2024-01-11T04:01:28.188Z,93413.00
2024-01-11T04:02:28.273Z,93415.00
2024-01-11T04:03:28.341Z,93411.00
2024-01-11T04:04:28.353Z,93414.00
2024-01-11T04:05:28.458Z,93413.00
2024-01-11T04:06:28.578Z,93410.00
2024-01-11T04:07:28.541Z,93410.00
2024-01-11T04:08:28.630Z,93410.00
2024-01-11T04:09:28.748Z,93409.00
2024-01-11T04:10:28.758Z,93409.00
2024-01-11T04:11:28.871Z,93409.00
2024-01-11T04:12:28.876Z,93410.00
2024-01-11T04:13:28.934Z,93411.00
2024-01-11T04:14:29.033Z,93412.00
2024-01-11T04:15:29.066Z,93413.00
2024-01-11T04:16:29.135Z,93413.00
2024-01-11T04:17:29.334Z,93416.00
2024-01-11T04:18:29.291Z,93410.00
2024-01-11T04:19:29.436Z,93409.00
2024-01-11T04:20:29.446Z,93413.00
2024-01-11T04:21:29.464Z,93411.00
2024-01-11T04:22:29.531Z,93412.00
2024-01-11T04:23:29.624Z,93409.00
2024-01-11T04:24:29.638Z,93411.00
2024-01-11T04:25:29.681Z,93412.00
2024-01-11T04:26:29.781Z,93408.00
2024-01-11T04:27:29.808Z,93408.00
2024-01-11T04:28:29.895Z,93407.00
2024-01-11T04:29:29.964Z,93410.00
2024-01-11T04:30:30.030Z,93405.00
2024-01-11T04:31:30.056Z,93401.00
2024-01-11T04:32:30.166Z,93406.00
2024-01-11T04:33:30.261Z,93402.00
2024-01-11T04:34:30.281Z,93407.00
2024-01-11T04:35:37.513Z,93408.00
2024-01-11T04:36:37.439Z,93407.00
2024-01-11T04:37:37.433Z,93406.00
2024-01-11T04:38:37.473Z,93404.00
2024-01-11T04:39:37.347Z,93404.00
2024-01-11T04:40:37.311Z,93401.00
2024-01-11T04:41:37.383Z,93401.00
2024-01-11T04:42:37.293Z,93398.00
2024-01-11T04:43:37.223Z,93400.00
2024-01-11T04:44:37.257Z,93399.00
2024-01-11T04:45:37.159Z,93401.00
2024-01-11T04:46:37.138Z,93403.00
2024-01-11T04:47:37.187Z,93404.00
2024-01-11T04:48:37.121Z,93404.00
2024-01-11T04:49:37.039Z,93406.00
2024-01-11T04:50:37.093Z,93405.00
2024-01-11T04:51:36.981Z,93405.00
2024-01-11T04:52:36.954Z,93403.00
2024-01-11T04:53:36.977Z,93404.00
2024-01-11T04:54:36.906Z,93404.00
2024-01-11T04:55:36.855Z,93405.00
2024-01-11T04:56:36.894Z,93407.00
2024-01-11T04:57:36.787Z,93407.00
2024-01-11T04:58:36.767Z,93407.00
2024-01-11T04:59:36.821Z,93408.00
2024-01-11T05:00:36.738Z,93402.00
2024-01-11T05:01:36.727Z,93403.00
2024-01-11T05:02:36.955Z,93405.00
2024-01-11T05:03:36.854Z,93404.00
2024-01-11T05:04:36.807Z,93406.00
2024-01-11T05:05:36.908Z,93407.00
2024-01-11T05:06:36.928Z,93403.00
2024-01-11T05:07:36.912Z,93400.00
2024-01-11T05:08:37.050Z,93400.00
2024-01-11T05:09:36.978Z,93404.00
2024-01-11T05:10:36.997Z,93405.00
2024-01-11T05:11:37.117Z,93401.00
2024-01-11T05:12:37.061Z,93402.00
2024-01-11T05:13:37.097Z,93403.00
2024-01-11T05:14:37.193Z,93404.00
2024-01-11T05:15:37.169Z,93410.00
2024-01-11T05:16:37.213Z,93406.00
2024-01-11T05:17:37.304Z,93404.00
2024-01-11T05:18:37.373Z,93404.00
2024-01-11T05:19:37.453Z,93406.00
2024-01-11T05:20:37.364Z,93406.00
2024-01-11T05:21:37.366Z,93406.00
2024-01-11T05:22:37.403Z,93407.00
2024-01-11T05:23:37.450Z,93402.00
2024-01-11T05:24:37.477Z,93400.00
2024-01-11T05:25:37.521Z,93402.00
2024-01-11T05:26:37.615Z,93398.00
2024-01-11T05:27:37.582Z,93398.00
2024-01-11T05:28:37.622Z,93402.00
2024-01-11T05:29:37.692Z,93404.00
2024-01-11T05:30:37.893Z,93400.00
2024-01-11T05:31:37.857Z,93399.00
2024-01-11T05:32:37.873Z,93394.00
2024-01-11T05:33:37.942Z,93396.00
2024-01-11T05:34:38.141Z,93395.00
2024-01-11T05:35:38.102Z,93391.00
2024-01-11T05:36:37.917Z,93394.00
2024-01-11T05:37:37.954Z,93395.00
2024-01-11T05:38:38.008Z,93395.00
2024-01-11T05:39:38.009Z,93394.00
2024-01-11T05:40:38.063Z,93397.00
2024-01-11T05:41:38.206Z,93397.00
2024-01-11T05:42:38.174Z,93397.00
2024-01-11T05:43:38.168Z,93400.00
2024-01-11T05:44:38.306Z,93403.00
2024-01-11T05:45:47.340Z,93401.00
2024-01-11T05:46:39.333Z,93397.00
2024-01-11T05:47:38.378Z,93398.00
2024-01-11T05:48:38.306Z,93397.00
2024-01-11T05:49:38.133Z,93394.00
2024-01-11T05:50:38.179Z,93396.00
2024-01-11T05:51:38.086Z,93398.00
2024-01-11T05:52:38.063Z,93404.00
2024-01-11T05:53:38.105Z,93406.00
2024-01-11T05:54:38.062Z,93404.00
2024-01-11T05:55:38.121Z,93404.00
2024-01-11T05:56:38.196Z,93410.00
2024-01-11T05:57:38.194Z,93409.00
2024-01-11T05:58:38.229Z,93407.00
2024-01-11T05:59:38.335Z,93408.00
2024-01-11T06:00:38.360Z,93407.00
2024-01-11T06:01:38.374Z,93403.00
2024-01-11T06:02:38.493Z,93413.00
2024-01-11T06:03:38.663Z,93402.00
2024-01-11T06:04:38.487Z,93406.00
2024-01-11T06:05:38.581Z,93402.00
2024-01-11T06:06:38.632Z,93406.00
2024-01-11T06:07:38.625Z,93403.00
2024-01-11T06:08:38.828Z,93408.00
2024-01-11T06:09:38.709Z,93402.00
2024-01-11T06:10:38.757Z,93406.00
2024-01-11T06:11:38.856Z,93397.00
2024-01-11T06:12:38.817Z,93401.00
2024-01-11T06:13:38.858Z,93397.00
2024-01-11T06:14:38.991Z,93395.00
2024-01-11T06:15:38.929Z,93394.00
2024-01-11T06:16:38.981Z,93396.00
2024-01-11T06:17:39.069Z,93401.00
2024-01-11T06:18:40.116Z,93407.00
2024-01-11T06:19:38.965Z,93400.00
2024-01-11T06:20:39.021Z,93398.00
2024-01-11T06:21:38.908Z,93402.00
2024-01-11T06:22:38.911Z,93398.00
2024-01-11T06:23:39.005Z,93396.00
2024-01-11T06:24:38.820Z,93399.00
2024-01-11T06:25:38.786Z,93399.00
2024-01-11T06:26:38.872Z,93407.00
2024-01-11T06:27:38.820Z,93409.00
2024-01-11T06:28:38.829Z,93409.00
2024-01-11T06:29:38.908Z,93406.00
2024-01-11T06:30:38.891Z,93409.00
2024-01-11T06:31:38.891Z,93409.00
2024-01-11T06:32:38.972Z,93412.00
2024-01-11T06:33:39.001Z,93407.00
2024-01-11T06:34:38.959Z,93410.00
2024-01-11T06:35:38.905Z,93412.00
2024-01-11T06:36:38.892Z,93409.00
2024-01-11T06:37:38.920Z,93409.00
2024-01-11T06:38:39.003Z,93408.00
2024-01-11T06:39:38.912Z,93410.00
2024-01-11T06:40:38.949Z,93408.00
2024-01-11T06:41:39.068Z,93407.00
2024-01-11T06:42:38.969Z,93406.00
2024-01-11T06:43:38.988Z,93409.00
2024-01-11T06:44:39.067Z,93428.00
2024-01-11T06:45:39.027Z,93426.00
2024-01-11T06:46:39.051Z,93427.00
2024-01-11T06:47:39.199Z,93424.00
2024-01-11T06:48:39.305Z,93417.00
2024-01-11T06:49:39.178Z,93423.00
2024-01-11T06:50:39.186Z,93429.00
2024-01-11T06:51:39.228Z,93429.00
2024-01-11T06:52:39.223Z,93428.00
2024-01-11T06:53:39.347Z,93430.00
2024-01-11T06:54:39.329Z,93426.00
2024-01-11T06:55:39.343Z,93428.00
2024-01-11T06:56:39.418Z,93431.00
2024-01-11T06:57:39.423Z,93432.00
2024-01-11T06:58:39.446Z,93432.00
2024-01-11T06:59:39.514Z,93432.00
2024-01-11T07:00:39.542Z,93433.00
2024-01-11T07:01:39.564Z,93432.00
2024-01-11T07:02:39.663Z,93433.00
2024-01-11T07:03:39.705Z,93433.00
2024-01-11T07:04:39.683Z,93436.00
2024-01-11T07:05:39.814Z,93439.00
2024-01-11T07:06:39.907Z,93441.00
2024-01-11T07:07:39.801Z,93446.00
2024-01-11T07:08:39.863Z,93441.00
2024-01-11T07:09:39.871Z,93444.00
2024-01-11T07:10:39.920Z,93443.00
2024-01-11T07:11:40.125Z,93452.00
2024-01-11T07:12:39.993Z,93446.00
2024-01-11T07:13:40.360Z,93448.00
2024-01-11T07:14:40.123Z,93451.00
2024-01-11T07:15:40.228Z,93455.00
2024-01-11T07:16:40.174Z,93451.00
2024-01-11T07:17:41.182Z,93451.00
2024-01-11T07:18:42.234Z,93448.00
2024-01-11T07:19:40.362Z,93454.00
2024-01-11T07:20:40.509Z,93449.00
2024-01-11T07:21:40.384Z,93452.00
2024-01-11T07:22:42.405Z,93451.00
2024-01-11T07:23:40.409Z,93451.00
2024-01-11T07:24:40.389Z,93448.00
2024-01-11T07:25:40.363Z,93447.00
2024-01-11T07:26:40.322Z,93450.00
2024-01-11T07:27:41.055Z,93452.00
2024-01-11T07:28:40.194Z,93450.00
2024-01-11T07:29:40.213Z,93450.00
2024-01-11T07:30:41.225Z,93450.00
2024-01-11T07:31:41.563Z,93457.00
2024-01-11T07:32:40.394Z,93458.00
2024-01-11T07:33:40.554Z,93458.00
2024-01-11T07:34:41.161Z,93459.00
2024-01-11T07:35:41.119Z,93454.00
2024-01-11T07:36:41.169Z,93457.00
2024-01-11T07:37:41.065Z,93459.00
2024-01-11T07:38:40.518Z,93464.00
2024-01-11T07:39:40.588Z,93454.00
2024-01-11T07:40:43.471Z,93459.00
2024-01-11T07:41:40.682Z,93456.00
2024-01-11T07:42:40.485Z,93452.00
2024-01-11T07:43:48.992Z,93457.00
2024-01-11T07:44:41.461Z,93456.00
2024-01-11T07:45:41.330Z,93459.00
2024-01-11T07:46:46.838Z,93458.00
2024-01-11T07:47:41.353Z,93456.00
2024-01-11T07:48:40.347Z,93457.00
2024-01-11T07:49:40.275Z,93459.00
2024-01-11T07:50:40.227Z,93455.00
2024-01-11T07:51:40.148Z,93455.00
2024-01-11T07:52:40.201Z,93455.00
2024-01-11T07:53:40.151Z,93457.00
2024-01-11T07:54:40.080Z,93457.00
2024-01-11T07:55:40.142Z,93459.00
2024-01-11T07:56:40.222Z,93460.00
2024-01-11T07:57:40.057Z,93464.00
2024-01-11T07:58:40.028Z,93464.00
2024-01-11T07:59:40.055Z,93464.00
2024-01-11T08:00:40.596Z,93466.00
2024-01-11T08:01:39.950Z,93467.00
2024-01-11T08:02:40.009Z,93466.00
2024-01-11T08:03:39.960Z,93470.00
2024-01-11T08:04:40.003Z,93468.00
2024-01-11T08:05:40.077Z,93469.00
2024-01-11T08:06:40.125Z,93471.00
2024-01-11T08:07:40.097Z,93470.00
2024-01-11T08:08:40.295Z,93469.00
2024-01-11T08:09:41.140Z,93470.00
2024-01-11T08:10:40.075Z,93471.00
2024-01-11T08:11:42.952Z,93470.00
2024-01-11T08:12:40.002Z,93470.00
2024-01-11T08:13:39.979Z,93470.00
2024-01-11T08:14:40.069Z,93475.00
2024-01-11T08:15:39.922Z,93478.00
2024-01-11T08:16:40.127Z,93480.00
2024-01-11T08:17:41.076Z,93480.00
2024-01-11T08:18:39.889Z,93476.00
2024-01-11T08:19:39.901Z,93477.00
2024-01-11T08:20:39.985Z,93475.00
2024-01-11T08:21:39.978Z,93483.00
2024-01-11T08:22:41.018Z,93482.00
2024-01-11T08:23:39.943Z,93482.00
2024-01-11T08:24:39.900Z,93478.00
2024-01-11T08:25:39.842Z,93480.00
2024-01-11T08:26:39.825Z,93481.00
2024-01-11T08:27:39.765Z,93480.00
2024-01-11T08:28:40.642Z,93481.00
2024-01-11T08:29:40.623Z,93483.00
2024-01-11T08:30:39.721Z,93482.00
2024-01-11T08:31:40.584Z,93482.00
2024-01-11T08:32:39.743Z,93482.00
2024-01-11T08:33:40.147Z,93481.00
2024-01-11T08:34:39.928Z,93488.00
2024-01-11T08:35:39.830Z,93487.00
2024-01-11T08:36:39.799Z,93480.00
2024-01-11T08:37:39.820Z,93482.00
2024-01-11T08:38:39.898Z,93483.00
2024-01-11T08:39:41.281Z,93482.00
2024-01-11T08:40:39.992Z,93475.00
2024-01-11T08:41:39.999Z,93480.00
2024-01-11T08:42:39.998Z,93480.00
2024-01-11T08:43:40.024Z,93474.00
2024-01-11T08:44:40.094Z,93477.00
2024-01-11T08:45:40.064Z,93477.00
2024-01-11T08:46:40.645Z,93480.00
2024-01-11T08:47:40.488Z,93477.00
2024-01-11T08:48:41.163Z,93478.00
2024-01-11T08:49:40.173Z,93478.00
2024-01-11T08:50:40.212Z,93471.00
2024-01-11T08:51:40.218Z,93471.00
2024-01-11T08:52:40.267Z,93470.00
2024-01-11T08:53:41.234Z,93469.00
2024-01-11T08:54:40.295Z,93470.00
2024-01-11T08:55:40.334Z,93474.00
2024-01-11T08:56:40.492Z,93471.00
2024-01-11T08:57:40.378Z,93473.00
2024-01-11T08:58:40.406Z,93469.00
2024-01-11T08:59:40.585Z,93469.00
2024-01-11T09:00:40.564Z,93470.00
2024-01-11T09:01:41.010Z,93471.00
2024-01-11T09:02:40.553Z,93472.00
2024-01-11T09:03:40.592Z,93470.00
2024-01-11T09:04:40.469Z,93471.00
2024-01-11T09:05:40.535Z,93470.00
2024-01-11T09:06:40.399Z,93468.00
2024-01-11T09:07:40.342Z,93473.00
2024-01-11T09:08:40.322Z,93474.00
2024-01-11T09:09:44.483Z,93470.00
2024-01-11T09:10:41.223Z,93467.00
2024-01-11T09:11:40.319Z,93468.00
2024-01-11T09:12:40.169Z,93472.00
2024-01-11T09:13:40.138Z,93462.00
2024-01-11T09:14:40.202Z,93460.00
2024-01-11T09:15:41.684Z,93462.00
2024-01-11T09:16:40.054Z,93463.00
2024-01-11T09:17:40.176Z,93467.00
2024-01-11T09:18:41.187Z,93464.00
2024-01-11T09:19:40.126Z,93465.00
2024-01-11T09:20:39.931Z,93464.00
2024-01-11T09:21:39.861Z,93457.00
2024-01-11T09:22:39.830Z,93454.00
2024-01-11T09:23:39.878Z,93455.00
2024-01-11T09:24:40.681Z,93458.00
2024-01-11T09:25:39.710Z,93450.00
2024-01-11T09:26:39.763Z,93449.00
2024-01-11T09:27:39.621Z,93452.00
2024-01-11T09:28:40.127Z,93452.00
2024-01-11T09:29:39.596Z,93452.00
2024-01-11T09:30:39.537Z,93450.00
2024-01-11T09:31:39.471Z,93446.00
2024-01-11T09:32:39.623Z,93449.00
2024-01-11T09:33:39.524Z,93455.00
2024-01-11T09:34:40.494Z,93456.00
2024-01-11T09:35:39.316Z,93451.00
2024-01-11T09:36:39.305Z,93456.00
2024-01-11T09:37:39.337Z,93462.00
2024-01-11T09:38:39.340Z,93461.00
2024-01-11T09:39:39.224Z,93457.00
2024-01-11T09:40:39.224Z,93463.00
2024-01-11T09:41:39.334Z,93464.00
2024-01-11T09:42:44.268Z,93460.00
2024-01-11T09:43:39.135Z,93464.00
2024-01-11T09:44:39.127Z,93460.00
2024-01-11T09:45:39.080Z,93466.00
2024-01-11T09:46:39.039Z,93464.00
2024-01-11T09:47:39.099Z,93455.00
2024-01-11T09:48:39.758Z,93458.00
2024-01-11T09:49:43.645Z,93470.00
2024-01-11T09:50:38.956Z,93465.00
2024-01-11T09:51:38.866Z,93458.00
2024-01-11T09:52:38.912Z,93466.00
2024-01-11T09:53:38.882Z,93468.00
2024-01-11T09:54:38.769Z,93457.00
2024-01-11T09:55:38.755Z,93462.00
2024-01-11T09:56:38.774Z,93461.00
2024-01-11T09:57:38.697Z,93463.00
2024-01-11T09:58:38.633Z,93463.00
2024-01-11T09:59:38.708Z,93458.00
2024-01-11T10:00:38.577Z,93458.00
2024-01-11T10:01:38.533Z,93457.00
2024-01-11T10:02:38.528Z,93454.00
2024-01-11T10:03:38.506Z,93454.00
2024-01-11T10:04:38.662Z,93453.00
2024-01-11T10:05:39.529Z,93450.00
2024-01-11T10:06:39.148Z,93445.00
2024-01-11T10:07:38.324Z,93445.00
2024-01-11T10:08:38.449Z,93448.00
2024-01-11T10:09:38.267Z,93443.00
2024-01-11T10:10:38.590Z,93446.00
2024-01-11T10:11:38.229Z,93444.00
2024-01-11T10:12:39.272Z,93441.00
2024-01-11T10:13:38.207Z,93435.00
2024-01-11T10:14:38.196Z,93440.00
2024-01-11T10:15:38.092Z,93433.00
2024-01-11T10:16:38.646Z,93429.00
2024-01-11T10:17:39.226Z,93431.00
2024-01-11T10:18:38.351Z,93429.00
2024-01-11T10:19:38.296Z,93428.00
2024-01-11T10:20:38.445Z,93429.00
2024-01-11T10:21:38.339Z,93433.00
2024-01-11T10:22:38.270Z,93435.00
2024-01-11T10:23:39.121Z,93436.00
2024-01-11T10:24:38.285Z,93438.00
2024-01-11T10:25:38.312Z,93441.00
2024-01-11T10:26:38.413Z,93442.00
2024-01-11T10:27:38.342Z,93444.00
2024-01-11T10:28:49.440Z,93444.00
2024-01-11T10:29:41.370Z,93447.00
2024-01-11T10:30:40.612Z,93445.00
2024-01-11T10:31:38.453Z,93445.00
2024-01-11T10:32:42.556Z,93441.00
2024-01-11T10:33:38.496Z,93441.00
2024-01-11T10:34:38.728Z,93441.00
2024-01-11T10:35:38.384Z,93444.00
2024-01-11T10:36:38.102Z,93436.00
2024-01-11T10:37:38.107Z,93437.00
2024-01-11T10:38:39.689Z,93439.00
2024-01-11T10:39:38.053Z,93437.00
2024-01-11T10:40:37.965Z,93435.00
2024-01-11T10:41:37.984Z,93432.00
2024-01-11T10:42:37.885Z,93431.00
2024-01-11T10:43:37.862Z,93430.00
2024-01-11T10:44:39.080Z,93430.00
2024-01-11T10:45:37.805Z,93429.00
2024-01-11T10:46:38.632Z,93427.00
2024-01-11T10:47:37.833Z,93422.00
2024-01-11T10:48:37.836Z,93418.00
2024-01-11T10:49:37.849Z,93418.00
2024-01-11T10:50:37.885Z,93415.00
2024-01-11T10:51:37.880Z,93413.00
2024-01-11T10:52:37.901Z,93408.00
2024-01-11T10:53:38.694Z,93409.00
2024-01-11T10:54:37.984Z,93407.00
2024-01-11T10:55:38.048Z,93405.00
2024-01-11T10:56:38.085Z,93404.00
2024-01-11T10:57:38.056Z,93404.00
2024-01-11T10:58:38.142Z,93403.00
2024-01-11T10:59:38.131Z,93402.00
2024-01-11T11:00:38.168Z,93404.00
2024-01-11T11:01:38.200Z,93401.00
2024-01-11T11:02:38.212Z,93395.00
2024-01-11T11:03:38.258Z,93400.00
2024-01-11T11:04:38.232Z,93393.00
2024-01-11T11:05:38.360Z,93392.00
2024-01-11T11:06:39.214Z,93394.00
2024-01-11T11:07:38.295Z,93387.00
2024-01-11T11:08:38.497Z,93389.00
2024-01-11T11:09:38.387Z,93388.00
2024-01-11T11:10:38.425Z,93388.00
2024-01-11T11:11:38.508Z,93388.00
2024-01-11T11:12:38.459Z,93391.00
2024-01-11T11:13:38.489Z,93392.00
2024-01-11T11:14:38.623Z,93386.00
2024-01-11T11:15:38.512Z,93387.00
2024-01-11T11:16:38.537Z,93380.00
2024-01-11T11:17:38.499Z,93376.00
2024-01-11T11:18:38.498Z,93374.00
2024-01-11T11:19:38.464Z,93374.00
2024-01-11T11:20:38.366Z,93378.00
2024-01-11T11:21:39.053Z,93373.00
2024-01-11T11:22:38.275Z,93373.00
2024-01-11T11:23:38.318Z,93371.00
2024-01-11T11:24:38.217Z,93370.00
2024-01-11T11:25:38.176Z,93369.00
2024-01-11T11:26:38.218Z,93367.00
2024-01-11T11:27:38.163Z,93367.00
2024-01-11T11:28:38.184Z,93366.00
2024-01-11T11:29:38.296Z,93364.00
2024-01-11T11:30:38.217Z,93364.00
2024-01-11T11:31:38.269Z,93365.00
2024-01-11T11:32:39.355Z,93367.00
2024-01-11T11:33:38.352Z,93369.00
2024-01-11T11:34:38.269Z,93370.00
2024-01-11T11:35:38.451Z,93371.00
2024-01-11T11:36:38.289Z,93370.00
2024-01-11T11:37:38.322Z,93368.00
2024-01-11T11:38:38.371Z,93367.00
2024-01-11T11:39:38.378Z,93368.00
2024-01-11T11:40:38.438Z,93366.00
2024-01-11T11:41:38.381Z,93363.00
2024-01-11T11:42:38.387Z,93360.00
2024-01-11T11:43:38.409Z,93359.00
2024-01-11T11:44:38.527Z,93357.00